createdAt,value
2022-09-22T00:01:00.930Z,2.08
2022-09-22T00:03:31.029Z,1.85
2022-09-22T00:06:02.679Z,2.28
2022-09-22T00:08:32.171Z,1.50
2022-09-22T00:11:02.531Z,1.83
2022-09-22T00:13:30.488Z,1.75
2022-09-22T00:15:58.233Z,2.38
2022-09-22T00:18:26.034Z,1.60
2022-09-22T00:20:53.695Z,2.00
2022-09-22T00:23:21.470Z,3.60
2022-09-22T00:25:49.787Z,2.40
2022-09-22T00:28:20.279Z,2.30
2022-09-22T00:30:48.004Z,1.55
2022-09-22T00:33:15.687Z,2.22
2022-09-22T00:35:43.379Z,1.70
2022-09-22T00:38:11.062Z,2.78
2022-09-22T00:40:38.837Z,1.83
2022-09-22T00:43:14.575Z,1.60
2022-09-22T00:45:43.633Z,2.78
2022-09-22T00:48:11.323Z,2.10
2022-09-22T00:50:38.978Z,2.30
2022-09-22T00:53:08.311Z,2.22
2022-09-22T00:55:37.982Z,1.65
2022-09-22T00:58:07.755Z,2.35
2022-09-22T01:00:35.504Z,2.60
2022-09-22T01:03:05.874Z,1.67
2022-09-22T01:05:33.881Z,2.33
2022-09-22T01:08:01.653Z,2.00
2022-09-22T01:10:29.337Z,2.20
2022-09-22T01:13:02.308Z,2.00
2022-09-22T01:15:32.540Z,1.88
2022-09-22T01:21:13.365Z,2.25
2022-09-22T01:24:07.155Z,1.50
2022-09-22T01:27:00.308Z,1.52
2022-09-22T01:29:57.551Z,2.80
2022-09-22T01:32:28.779Z,1.92
2022-09-22T01:34:57.827Z,2.08
2022-09-22T01:37:26.762Z,2.58
2022-09-22T01:39:56.344Z,1.50
2022-09-22T01:42:28.139Z,2.58
2022-09-22T01:44:57.239Z,2.70
2022-09-22T01:47:28.381Z,1.88
2022-09-22T01:49:59.084Z,3.30
2022-09-22T01:52:28.721Z,1.52
2022-09-22T01:54:58.022Z,2.78
2022-09-22T01:57:29.754Z,2.10
2022-09-22T02:00:06.608Z,1.55
2022-09-22T02:02:37.961Z,2.17
2022-09-22T02:05:07.013Z,2.53
2022-09-22T02:07:36.663Z,1.67
2022-09-22T02:10:06.860Z,2.45
2022-09-22T02:15:02.999Z,1.77
2022-09-22T02:17:34.980Z,2.22
2022-09-22T02:20:05.913Z,2.10
2022-09-22T02:22:33.618Z,2.08
2022-09-22T02:25:01.285Z,1.48
2022-09-22T02:27:35.633Z,1.63
2022-09-22T02:30:04.852Z,1.45
2022-09-22T02:32:32.588Z,2.63
2022-09-22T02:35:02.150Z,1.48
2022-09-22T02:37:33.959Z,1.42
2022-09-22T02:40:05.690Z,2.67
2022-09-22T02:42:34.702Z,1.75
2022-09-22T02:45:05.272Z,1.90
2022-09-22T02:47:35.380Z,1.48
2022-09-22T02:52:32.212Z,1.40
2022-09-22T02:54:59.972Z,1.73
2022-09-22T02:57:27.645Z,1.75
2022-09-22T02:59:55.336Z,1.58
2022-09-22T03:02:23.017Z,1.83
2022-09-22T03:04:51.324Z,1.67
2022-09-22T03:07:19.079Z,1.60
2022-09-22T03:09:48.119Z,1.67
2022-09-22T03:12:15.818Z,1.92
2022-09-22T03:14:44.039Z,1.40
2022-09-22T03:17:11.725Z,1.67
2022-09-22T03:19:39.425Z,1.50
2022-09-22T03:22:07.095Z,1.92
2022-09-22T03:24:34.809Z,1.98
2022-09-22T03:27:03.864Z,1.70
2022-09-22T03:29:31.561Z,1.33
2022-09-22T03:31:59.219Z,1.73
2022-09-22T03:34:26.913Z,1.77
2022-09-22T03:36:54.607Z,2.05
2022-09-22T03:39:22.326Z,1.48
2022-09-22T03:41:50.466Z,1.63
2022-09-22T03:44:19.546Z,1.85
2022-09-22T03:46:47.222Z,1.70
2022-09-22T03:49:15.053Z,1.90
2022-09-22T03:51:42.753Z,1.42
2022-09-22T03:54:10.437Z,2.33
2022-09-22T03:56:38.134Z,2.03
2022-09-22T03:59:06.059Z,2.40
2022-09-22T04:01:35.093Z,2.03
2022-09-22T04:04:03.236Z,2.97
2022-09-22T04:06:30.911Z,1.52
2022-09-22T04:08:58.640Z,1.90
2022-09-22T04:11:26.359Z,1.60
2022-09-22T04:13:54.186Z,2.28
2022-09-22T04:16:21.941Z,1.90
2022-09-22T04:18:50.992Z,2.03
2022-09-22T04:21:18.651Z,1.98
2022-09-22T04:23:46.335Z,1.73
2022-09-22T04:26:13.986Z,2.13
2022-09-22T04:28:41.778Z,1.67
2022-09-22T04:31:09.527Z,3.33
2022-09-22T04:33:37.494Z,2.28
2022-09-22T04:36:07.326Z,2.08
2022-09-22T04:38:35.041Z,2.45
2022-09-22T04:41:02.699Z,2.50
2022-09-22T04:43:30.434Z,2.03
2022-09-22T04:45:58.170Z,2.63
2022-09-22T04:48:25.919Z,2.17
2022-09-22T04:50:53.588Z,2.35
2022-09-22T04:53:22.632Z,2.42
2022-09-22T04:55:50.431Z,2.40
2022-09-22T04:58:18.133Z,4.20
2022-09-22T05:00:45.811Z,2.60
2022-09-22T05:03:15.634Z,2.78
2022-09-22T05:05:48.039Z,4.00
2022-09-22T05:08:16.279Z,4.40
2022-09-22T05:10:45.341Z,2.88
2022-09-22T05:13:13.644Z,3.00
2022-09-22T05:15:41.888Z,5.28
2022-09-22T05:18:09.640Z,2.50
2022-09-22T05:20:37.940Z,4.15
2022-09-22T05:23:07.146Z,2.65
2022-09-22T05:25:34.814Z,5.30
2022-09-22T05:28:03.927Z,3.03
2022-09-22T05:30:31.610Z,3.38
2022-09-22T05:32:59.622Z,4.70
2022-09-22T05:35:27.386Z,5.55
2022-09-22T05:37:55.168Z,5.30
2022-09-22T05:40:24.076Z,4.25
2022-09-22T05:42:52.455Z,4.22
2022-09-22T05:45:21.599Z,4.05
2022-09-22T05:47:49.260Z,4.95
2022-09-22T05:50:17.871Z,3.72
2022-09-22T05:52:45.547Z,3.75
2022-09-22T05:55:13.463Z,5.82
2022-09-22T05:57:41.162Z,3.72
2022-09-22T06:00:09.914Z,5.13
2022-09-22T06:02:39.268Z,4.80
2022-09-22T06:05:07.279Z,6.53
2022-09-22T06:07:34.991Z,7.78
2022-09-22T06:10:02.684Z,6.30
2022-09-22T06:12:30.930Z,5.97
2022-09-22T06:14:58.663Z,6.30
2022-09-22T06:17:26.385Z,7.80
2022-09-22T06:19:55.430Z,7.53
2022-09-22T06:22:24.247Z,6.13
2022-09-22T06:24:51.977Z,5.72
2022-09-22T06:27:19.667Z,6.03
2022-09-22T06:29:47.378Z,5.80
2022-09-22T06:32:15.192Z,7.45
2022-09-22T06:34:45.207Z,5.82
2022-09-22T06:37:14.609Z,5.65
2022-09-22T06:39:42.599Z,8.10
2022-09-22T06:42:10.925Z,6.70
2022-09-22T06:44:38.901Z,5.07
2022-09-22T06:47:09.143Z,7.22
2022-09-22T06:49:37.456Z,6.82
2022-09-22T06:52:06.078Z,6.30
2022-09-22T06:54:35.483Z,5.15
2022-09-22T06:57:03.870Z,9.93
2022-09-22T06:59:31.546Z,4.85
2022-09-22T07:01:59.335Z,4.18
2022-09-22T07:04:27.318Z,6.32
2022-09-22T07:06:55.114Z,5.35
2022-09-22T07:09:22.824Z,7.47
2022-09-22T07:11:51.996Z,5.70
2022-09-22T07:14:22.400Z,4.50
2022-09-22T07:16:52.483Z,5.40
2022-09-22T07:19:20.183Z,5.38
2022-09-22T07:21:47.853Z,4.95
2022-09-22T07:24:15.734Z,4.43
2022-09-22T07:26:43.942Z,4.68
2022-09-22T07:29:16.225Z,7.25
2022-09-22T07:31:44.222Z,5.18
2022-09-22T07:34:12.800Z,6.00
2022-09-22T07:36:40.964Z,3.92
2022-09-22T07:39:11.114Z,4.85
2022-09-22T07:41:43.011Z,5.65
2022-09-22T07:44:28.715Z,4.38
2022-09-22T07:46:57.799Z,6.35
2022-09-22T07:49:25.503Z,5.13
2022-09-22T07:51:54.764Z,4.35
2022-09-22T07:54:22.638Z,6.13
2022-09-22T07:56:58.583Z,7.85
2022-09-22T07:59:26.735Z,5.53
2022-09-22T08:01:54.444Z,5.97
2022-09-22T08:04:23.851Z,6.80
2022-09-22T08:06:53.521Z,8.55
2022-09-22T08:09:21.210Z,7.70
2022-09-22T08:11:50.132Z,5.05
2022-09-22T08:14:18.261Z,4.32
2022-09-22T08:16:46.844Z,5.13
2022-09-22T08:19:14.796Z,6.35
2022-09-22T08:21:48.745Z,4.60
2022-09-22T08:24:21.318Z,5.68
2022-09-22T08:26:50.096Z,4.93
2022-09-22T08:29:17.779Z,3.65
2022-09-22T08:31:46.916Z,5.43
2022-09-22T08:34:16.813Z,4.10
2022-09-22T08:36:48.233Z,2.95
2022-09-22T08:39:16.163Z,3.67
2022-09-22T08:41:47.644Z,6.20
2022-09-22T08:44:20.379Z,4.07
2022-09-22T08:46:48.517Z,3.83
2022-09-22T08:49:37.861Z,67.82
2022-09-22T08:52:09.826Z,148.90
2022-09-22T08:54:38.755Z,90.85
2022-09-22T08:57:21.341Z,247.27
2022-09-22T08:59:52.105Z,179.13
2022-09-22T09:02:40.155Z,140.20
2022-09-22T09:05:47.067Z,107.85
2022-09-22T09:08:39.321Z,112.68
2022-09-22T09:11:12.907Z,117.82
2022-09-22T09:13:48.923Z,99.30
2022-09-22T09:16:25.825Z,90.22
2022-09-22T09:18:55.515Z,85.50
2022-09-22T09:21:23.175Z,82.47
2022-09-22T09:26:41.920Z,76.50
2022-09-22T09:29:11.484Z,82.40
2022-09-22T09:31:41.250Z,64.03
2022-09-22T09:34:11.645Z,60.80
2022-09-22T09:36:41.180Z,60.40
2022-09-22T09:39:14.259Z,61.28
2022-09-22T09:41:42.399Z,59.22
2022-09-22T09:44:15.666Z,49.45
2022-09-22T09:46:51.830Z,50.92
2022-09-22T09:49:20.791Z,54.70
2022-09-22T09:51:49.506Z,46.63
2022-09-22T09:54:18.960Z,46.50
2022-09-22T09:57:03.497Z,42.63
2022-09-22T09:59:48.743Z,37.03
2022-09-22T10:02:16.643Z,31.95
2022-09-22T10:04:51.633Z,34.10
2022-09-22T10:07:21.332Z,35.67
2022-09-22T10:09:51.095Z,35.60
2022-09-22T10:12:27.007Z,34.20
2022-09-22T10:14:55.355Z,32.05
2022-09-22T10:17:24.236Z,30.77
2022-09-22T10:19:51.931Z,29.05
2022-09-22T10:22:27.448Z,27.33
2022-09-22T10:25:00.311Z,23.42
2022-09-22T10:27:28.971Z,22.05
2022-09-22T10:30:22.439Z,23.70
2022-09-22T10:33:07.210Z,23.77
2022-09-22T10:35:36.135Z,19.35
2022-09-22T10:38:08.011Z,22.63
2022-09-22T10:40:37.128Z,22.80
2022-09-22T10:43:05.015Z,21.42
2022-09-22T10:45:37.639Z,18.45
2022-09-22T10:48:06.170Z,18.95
2022-09-22T10:50:57.046Z,19.73
2022-09-22T10:53:37.652Z,21.02
2022-09-22T10:56:11.382Z,16.17
2022-09-22T10:59:06.520Z,17.80
2022-09-22T11:01:45.032Z,14.35
2022-09-22T11:04:31.614Z,17.63
2022-09-22T11:07:27.422Z,16.88
2022-09-22T11:10:14.922Z,14.27
2022-09-22T11:12:48.139Z,17.80
2022-09-22T11:15:33.311Z,11.82
2022-09-22T11:18:20.548Z,16.90
2022-09-22T11:20:49.341Z,13.63
2022-09-22T11:24:08.271Z,15.70
2022-09-22T11:26:48.788Z,15.77
2022-09-22T11:29:50.384Z,10.95
2022-09-22T11:32:30.653Z,10.85
2022-09-22T11:35:04.984Z,11.75
2022-09-22T11:37:40.193Z,8.02
2022-09-22T11:40:33.639Z,13.07
2022-09-22T11:43:09.285Z,14.38
2022-09-22T11:45:44.769Z,9.65
2022-09-22T11:48:18.828Z,12.00
2022-09-22T11:50:55.125Z,13.85
2022-09-22T11:53:32.207Z,12.88
2022-09-22T11:56:16.663Z,10.38
2022-09-22T11:58:44.679Z,10.85
2022-09-22T12:01:15.094Z,10.38
2022-09-22T12:03:45.582Z,11.20
2022-09-22T12:06:15.406Z,7.85
2022-09-22T12:08:45.375Z,7.30
2022-09-22T12:11:14.085Z,10.15
2022-09-22T12:13:43.687Z,10.65
2022-09-22T12:16:13.947Z,10.27
2022-09-22T12:18:43.638Z,11.27
2022-09-22T12:21:20.731Z,10.05
2022-09-22T12:23:51.314Z,7.88
2022-09-22T12:26:27.119Z,9.85
2022-09-22T12:28:54.849Z,8.82
2022-09-22T12:33:53.343Z,7.15
2022-09-22T12:36:29.639Z,8.43
2022-09-22T12:39:08.142Z,9.52
2022-09-22T12:41:48.329Z,8.82
2022-09-22T12:46:48.815Z,3.83
2022-09-22T12:49:18.964Z,3.30
2022-09-22T12:54:39.723Z,5.38
2022-09-22T12:57:29.376Z,5.82
2022-09-22T13:00:32.087Z,5.90
2022-09-22T13:03:02.471Z,5.03
2022-09-22T13:05:34.707Z,3.97
2022-09-22T13:08:02.365Z,3.88
2022-09-22T13:10:52.862Z,4.72
2022-09-22T13:13:36.671Z,6.47
2022-09-22T13:16:05.939Z,4.75
2022-09-22T13:18:36.788Z,2.40
2022-09-22T13:21:20.071Z,4.20
2022-09-22T13:23:57.600Z,5.63
2022-09-22T13:26:26.213Z,3.38
2022-09-22T13:29:01.058Z,3.50
2022-09-22T13:31:29.049Z,4.38
2022-09-22T13:33:58.169Z,3.28
2022-09-22T13:36:27.079Z,4.18
2022-09-22T13:41:15.159Z,4.30
2022-09-22T13:43:44.337Z,3.85
2022-09-22T13:46:18.258Z,3.75
2022-09-22T13:48:46.124Z,3.05
2022-09-22T13:51:15.741Z,2.63
2022-09-22T13:53:43.732Z,3.83
2022-09-22T13:56:12.463Z,3.85
2022-09-22T13:58:41.174Z,3.10
2022-09-22T14:01:14.813Z,2.70
2022-09-22T14:03:42.732Z,4.63
2022-09-22T14:06:11.446Z,2.47
2022-09-22T14:08:40.489Z,1.65
2022-09-22T14:11:12.778Z,2.83
2022-09-22T14:13:41.188Z,3.05
2022-09-22T14:16:18.153Z,2.90
2022-09-22T14:18:47.146Z,2.72
2022-09-22T14:21:14.802Z,2.78
2022-09-22T14:23:47.823Z,3.00
2022-09-22T14:26:28.167Z,3.15
2022-09-22T14:28:55.963Z,3.13
2022-09-22T14:31:25.830Z,3.25
2022-09-22T14:33:53.581Z,2.53
2022-09-22T14:36:22.215Z,3.45
2022-09-22T14:39:05.856Z,2.03
2022-09-22T14:41:37.685Z,3.83
2022-09-22T14:44:26.411Z,3.97
2022-09-22T14:46:56.259Z,2.90
2022-09-22T14:49:35.962Z,1.98
2022-09-22T14:52:03.829Z,2.92
2022-09-22T14:54:32.869Z,2.53
2022-09-22T14:57:00.686Z,2.92
2022-09-22T14:59:45.988Z,4.25
2022-09-22T15:02:27.846Z,1.90
2022-09-22T15:04:55.561Z,2.13
2022-09-22T15:07:25.912Z,2.65
2022-09-22T15:09:56.455Z,2.38
2022-09-22T15:12:38.153Z,1.83
2022-09-22T15:15:16.461Z,3.08
2022-09-22T15:18:02.109Z,2.50
2022-09-22T15:20:34.907Z,3.10
2022-09-22T15:23:02.735Z,3.00
2022-09-22T15:25:31.842Z,4.82
2022-09-22T15:27:59.486Z,1.77
2022-09-22T15:30:32.755Z,2.15
2022-09-22T15:33:00.472Z,3.45
2022-09-22T15:35:28.397Z,2.03
2022-09-22T15:37:56.206Z,3.70
2022-09-22T15:40:24.595Z,2.75
2022-09-22T15:43:13.077Z,3.85
2022-09-22T15:45:47.667Z,1.42
2022-09-22T15:48:23.939Z,2.00
2022-09-22T15:50:51.817Z,1.58
2022-09-22T15:53:19.498Z,1.25
2022-09-22T15:55:47.949Z,1.52
2022-09-22T15:58:18.488Z,2.30
2022-09-22T16:00:47.297Z,3.50
2022-09-22T16:03:16.478Z,3.22
2022-09-22T16:05:44.881Z,1.60
2022-09-22T16:08:15.065Z,3.30
2022-09-22T16:13:12.090Z,1.27
2022-09-22T16:15:41.524Z,1.55
2022-09-22T16:18:10.105Z,3.40
2022-09-22T16:20:38.298Z,1.08
2022-09-22T16:23:06.409Z,1.77
2022-09-22T16:25:34.108Z,2.22
2022-09-22T16:28:02.058Z,1.63
2022-09-22T16:30:30.388Z,1.33
2022-09-22T16:32:59.453Z,2.30
2022-09-22T16:35:27.148Z,2.70
2022-09-22T16:37:55.702Z,2.47
2022-09-22T16:40:24.686Z,1.40
2022-09-22T16:42:52.479Z,1.73
2022-09-22T16:45:41.094Z,2.33
2022-09-22T16:48:10.146Z,2.05
2022-09-22T16:50:37.857Z,1.25
2022-09-22T16:53:07.518Z,1.33
2022-09-22T16:55:37.408Z,1.83
2022-09-22T17:00:35.108Z,1.50
2022-09-22T17:03:02.781Z,2.13
2022-09-22T17:05:32.832Z,1.20
2022-09-22T17:08:04.722Z,1.95
2022-09-22T17:10:35.942Z,2.38
2022-09-22T17:13:04.934Z,1.73
2022-09-22T17:15:35.912Z,1.63
2022-09-22T17:18:04.279Z,2.30
2022-09-22T17:20:33.332Z,2.13
2022-09-22T17:23:01.036Z,1.17
2022-09-22T17:25:29.113Z,2.38
2022-09-22T17:27:57.683Z,2.33
2022-09-22T17:30:25.387Z,1.30
2022-09-22T17:32:53.611Z,1.50
2022-09-22T17:35:21.306Z,1.73
2022-09-22T17:37:53.339Z,1.42
2022-09-22T17:40:21.102Z,3.25
2022-09-22T17:42:48.888Z,1.50
2022-09-22T17:45:16.815Z,1.70
2022-09-22T17:48:01.998Z,1.65
2022-09-22T17:50:47.418Z,1.30
2022-09-22T17:53:34.251Z,2.33
2022-09-22T17:56:05.180Z,1.10
2022-09-22T17:58:32.972Z,1.40
2022-09-22T18:01:00.682Z,1.35
2022-09-22T18:03:29.048Z,1.73
2022-09-22T18:05:57.468Z,2.47
2022-09-22T18:08:26.467Z,1.40
2022-09-22T18:10:54.443Z,1.42
2022-09-22T18:13:22.091Z,1.70
2022-09-22T18:15:52.313Z,1.85
2022-09-22T18:18:20.004Z,2.75
2022-09-22T18:20:48.409Z,1.77
2022-09-22T18:23:16.744Z,1.83
2022-09-22T18:25:45.849Z,1.45
2022-09-22T18:28:13.519Z,2.00
2022-09-22T18:30:41.237Z,1.85
2022-09-22T18:33:09.623Z,2.40
2022-09-22T18:35:37.328Z,1.48
2022-09-22T18:38:05.012Z,2.00
2022-09-22T18:40:32.794Z,1.63
2022-09-22T18:43:01.818Z,1.48
2022-09-22T18:45:29.829Z,2.15
2022-09-22T18:47:59.083Z,2.58
2022-09-22T18:50:28.185Z,1.73
2022-09-22T18:52:56.740Z,1.98
2022-09-22T18:55:24.455Z,3.45
2022-09-22T18:57:52.219Z,1.70
2022-09-22T19:00:22.082Z,1.58
2022-09-22T19:02:50.449Z,1.70
2022-09-22T19:05:18.365Z,3.50
2022-09-22T19:07:47.758Z,1.88
2022-09-22T19:10:20.541Z,1.65
2022-09-22T19:12:48.632Z,2.25
2022-09-22T19:15:18.827Z,1.95
2022-09-22T19:17:49.538Z,1.60
2022-09-22T19:20:18.416Z,1.65
2022-09-22T19:22:46.859Z,1.65
2022-09-22T19:25:14.992Z,2.22
2022-09-22T19:27:42.679Z,2.28
2022-09-22T19:30:11.409Z,1.80
2022-09-22T19:32:39.248Z,2.10
2022-09-22T19:35:09.239Z,1.70
2022-09-22T19:37:36.954Z,2.55
2022-09-22T19:40:05.322Z,3.35
2022-09-22T19:42:36.906Z,2.15
2022-09-22T19:45:08.200Z,2.92
2022-09-22T19:47:35.880Z,3.55
2022-09-22T19:50:03.883Z,2.38
2022-09-22T19:52:34.891Z,3.05
2022-09-22T19:55:02.783Z,2.05
2022-09-22T19:57:31.839Z,2.10
2022-09-22T19:59:59.703Z,2.40
2022-09-22T20:02:27.462Z,2.30
2022-09-22T20:04:55.976Z,3.38
2022-09-22T20:07:27.758Z,2.45
2022-09-22T20:09:57.347Z,3.38
2022-09-22T20:12:25.044Z,1.95
2022-09-22T20:14:53.324Z,2.13
2022-09-22T20:17:22.005Z,2.50
2022-09-22T20:19:49.917Z,2.33
2022-09-22T20:22:19.793Z,2.30
2022-09-22T20:24:54.197Z,2.38
2022-09-22T20:27:25.325Z,2.38
2022-09-22T20:29:57.037Z,2.65
2022-09-22T20:32:25.215Z,2.47
2022-09-22T20:34:54.072Z,2.72
2022-09-22T20:37:21.844Z,2.10
2022-09-22T20:39:49.815Z,2.13
2022-09-22T20:42:17.521Z,2.20
2022-09-22T20:44:46.875Z,2.42
2022-09-22T20:47:15.658Z,2.20
2022-09-22T20:49:45.842Z,2.55
2022-09-22T20:52:16.365Z,3.22
2022-09-22T20:54:44.167Z,2.35
2022-09-22T20:57:11.878Z,4.15
2022-09-22T20:59:40.037Z,2.85
2022-09-22T21:02:10.571Z,2.20
2022-09-22T21:04:38.295Z,2.28
2022-09-22T21:07:06.042Z,3.40
2022-09-22T21:09:51.188Z,2.22
2022-09-22T21:12:18.860Z,2.35
2022-09-22T21:14:46.549Z,2.13
2022-09-22T21:17:15.583Z,2.45
2022-09-22T21:19:43.350Z,3.47
2022-09-22T21:22:11.108Z,3.22
2022-09-22T21:24:39.376Z,2.65
2022-09-22T21:27:07.086Z,2.50
2022-09-22T21:29:34.815Z,3.05
2022-09-22T21:32:03.024Z,2.65
2022-09-22T21:34:32.092Z,2.70
2022-09-22T21:37:00.575Z,2.28
2022-09-22T21:39:28.262Z,2.58
2022-09-22T21:41:56.474Z,3.90
2022-09-22T21:44:24.209Z,2.45
2022-09-22T21:46:51.946Z,4.35
2022-09-22T21:49:19.635Z,3.03
2022-09-22T21:51:48.685Z,3.25
2022-09-22T21:54:17.817Z,2.33
2022-09-22T21:56:45.538Z,2.95
2022-09-22T21:59:13.358Z,2.30
2022-09-22T22:01:42.050Z,2.00
2022-09-22T22:04:13.791Z,2.47
2022-09-22T22:06:42.096Z,2.00
2022-09-22T22:09:14.689Z,2.20
2022-09-22T22:11:43.528Z,2.28
2022-09-22T22:14:12.114Z,3.75
2022-09-22T22:16:40.800Z,1.95
2022-09-22T22:19:09.318Z,2.33
2022-09-22T22:21:37.155Z,1.85
2022-09-22T22:24:23.045Z,3.35
2022-09-22T22:26:52.786Z,2.20
2022-09-22T22:29:21.022Z,3.42
2022-09-22T22:31:49.070Z,1.98
2022-09-22T22:34:18.193Z,2.15
2022-09-22T22:36:45.999Z,2.33
2022-09-22T22:39:13.849Z,1.70
2022-09-22T22:41:41.686Z,2.25
2022-09-22T22:44:12.278Z,2.25
2022-09-22T22:46:40.062Z,3.17
2022-09-22T22:49:08.294Z,2.78
2022-09-22T22:51:36.723Z,2.05
2022-09-22T22:54:04.981Z,1.85
2022-09-22T22:56:32.753Z,3.80
2022-09-22T22:59:00.463Z,2.55
2022-09-22T23:01:30.232Z,2.55
2022-09-22T23:04:00.208Z,1.98
2022-09-22T23:06:29.624Z,1.50
2022-09-22T23:08:57.396Z,2.03
2022-09-22T23:11:27.009Z,1.80
2022-09-22T23:13:56.188Z,1.88
2022-09-22T23:16:25.156Z,3.20
2022-09-22T23:18:54.210Z,1.77
2022-09-22T23:21:22.228Z,1.52
2022-09-22T23:23:50.163Z,1.90
2022-09-22T23:26:18.157Z,1.90
2022-09-22T23:28:45.857Z,1.42
2022-09-22T23:31:14.459Z,1.50
2022-09-22T23:33:43.510Z,2.08
2022-09-22T23:36:13.899Z,1.95
2022-09-22T23:38:41.571Z,1.58
2022-09-22T23:41:10.380Z,1.85
2022-09-22T23:43:38.135Z,2.38
2022-09-22T23:46:07.408Z,1.40
2022-09-22T23:48:35.304Z,1.88
2022-09-22T23:51:03.158Z,2.47
2022-09-22T23:53:33.356Z,1.80
2022-09-22T23:58:28.809Z,3.47
